Time;durP1;ratioP1;P1;durP2;ratioP2;P2;SDS_P1;SDS_P2;PMS_P1;PMS_P2;Temp;Humidity;BMP_temperature;BMP_pressure;BME280_temperature;BME280_humidity;BME280_pressure;Samples;Min_cycle;Max_cycle;Signal;HPM_P1;HPM_P2
2022/06/03 00:02:24;;;;;;;3.97;2.65;;;;;;;13.21;67.38;101967.97;5050756;28;20064;-36
2022/06/03 00:05:11;;;;;;;3.15;2.75;;;;;;;13.18;67.34;101974.69;5050355;28;20037;-36
2022/06/03 00:07:50;;;;;;;3.17;2.63;;;;;;;13.21;67.32;101973.41;5050615;28;20044;-36
2022/06/03 00:10:47;;;;;;;4.07;2.65;;;;;;;13.20;67.37;101975.31;5050229;28;20033;-36
2022/06/03 00:13:27;;;;;;;;;;;;;;;13.29;66.36;101970.47;5049969;28;20075;-36
2022/06/03 00:16:26;;;;;;;3.67;2.55;;;;;;;13.19;67.20;101972.81;5049925;28;19970;-36
2022/06/03 00:19:11;;;;;;;2.72;2.28;;;;;;;13.22;67.41;101972.38;4991126;28;20089;-36
2022/06/03 00:21:45;;;;;;;3.00;2.67;;;;;;;13.17;67.53;101973.00;4991030;28;20094;-36
2022/06/03 00:24:45;;;;;;;3.80;2.70;;;;;;;13.21;67.37;101970.69;4991237;28;20426;-36
2022/06/03 00:27:23;;;;;;;2.83;2.50;;;;;;;13.19;67.50;101961.94;4990820;28;20057;-36
2022/06/03 00:29:54;;;;;;;3.00;2.40;;;;;;;13.17;67.49;101966.75;4994385;28;20050;-36
2022/06/03 00:32:47;;;;;;;3.17;2.50;;;;;;;13.19;67.29;101967.38;4994637;28;20062;-36
2022/06/03 00:35:25;;;;;;;3.25;2.40;;;;;;;13.15;67.58;101966.97;4994687;28;20038;-36
2022/06/03 00:37:59;;;;;;;5.18;2.67;;;;;;;13.11;67.64;101955.72;4994743;28;20092;-36
2022/06/03 00:40:48;;;;;;;4.40;3.15;;;;;;;13.17;67.21;101962.16;4994238;28;20487;-36
2022/06/03 00:43:31;;;;;;;3.50;2.58;;;;;;;13.16;67.44;101963.22;4994691;28;20046;-36
2022/06/03 00:46:18;;;;;;;3.60;2.42;;;;;;;13.17;67.80;101962.16;4993880;28;20446;-36
2022/06/03 00:49:27;;;;;;;3.07;2.50;;;;;;;13.17;67.67;101959.44;4994472;28;20466;-36
2022/06/03 00:52:22;;;;;;;2.88;2.50;;;;;;;13.17;67.44;101961.31;4955369;28;20399;-36
2022/06/03 00:54:50;;;;;;;3.53;2.25;;;;;;;13.12;67.71;101957.38;4918824;28;20144;-36
2022/06/03 00:57:40;;;;;;;2.92;2.38;;;;;;;13.14;67.87;101959.91;4993981;28;20034;-36
2022/06/03 01:00:18;;;;;;;3.55;2.67;;;;;;;13.04;67.76;101940.56;4993796;28;20173;-35
2022/06/03 01:02:50;;;;;;;3.90;2.42;;;;;;;13.03;68.30;101957.88;4994225;28;20475;-36
2022/06/03 01:05:37;;;;;;;3.80;2.72;;;;;;;12.97;68.15;101954.16;4993794;28;20121;-36
2022/06/03 01:08:12;;;;;;;2.88;2.63;;;;;;;13.02;68.73;101951.59;4994279;28;20526;-36
2022/06/03 01:10:49;;;;;;;3.43;2.97;;;;;;;13.03;67.96;101952.44;4994143;28;20044;-36
2022/06/03 01:13:39;;;;;;;3.55;2.70;;;;;;;12.98;68.11;101946.84;4994085;28;20061;-36
2022/06/03 01:16:33;;;;;;;3.28;2.53;;;;;;;13.00;68.67;101948.28;4993938;28;20034;-36
2022/06/03 01:19:11;;;;;;;3.70;2.70;;;;;;;12.94;68.53;101943.75;4993636;28;20042;-36
2022/06/03 01:22:07;;;;;;;2.63;2.42;;;;;;;12.93;68.52;101946.66;4993957;28;20062;-36
2022/06/03 01:24:48;;;;;;;4.03;3.05;;;;;;;12.88;68.85;101941.91;4993630;28;20043;-36
2022/06/03 01:27:31;;;;;;;3.65;2.65;;;;;;;12.91;68.40;101932.50;4986026;28;20043;-36
2022/06/03 01:30:09;;;;;;;3.20;2.90;;;;;;;12.88;68.71;101936.47;4973897;28;20073;-36
2022/06/03 01:32:53;;;;;;;3.03;2.70;;;;;;;12.94;68.79;101932.91;5075030;28;20465;-36
2022/06/03 01:35:45;;;;;;;4.80;3.30;;;;;;;12.93;69.02;101936.63;5074880;28;20055;-36
2022/06/03 01:38:36;;;;;;;3.75;2.40;;;;;;;12.91;69.04;101924.34;5075414;28;20028;-36
2022/06/03 01:41:34;;;;;;;3.35;2.50;;;;;;;12.93;68.48;101931.22;5074572;28;20031;-36
2022/06/03 01:44:02;;;;;;;;;;;;;;;12.91;68.34;101914.31;5075457;28;20126;-36
2022/06/03 01:46:31;;;;;;;3.00;2.67;;;;;;;12.89;69.15;101932.72;5075334;28;19968;-35
2022/06/03 01:48:56;;;;;;;3.60;2.67;;;;;;;12.93;68.94;101922.22;5075036;28;20031;-36
2022/06/03 01:51:31;;;;;;;2.83;2.50;;;;;;;12.92;69.19;101918.69;5074645;28;20036;-36
2022/06/03 01:54:31;;;;;;;2.70;2.50;;;;;;;12.99;68.85;101907.81;5075099;28;20373;-36
2022/06/03 01:57:43;;;;;;;2.97;2.60;;;;;;;12.96;68.50;101903.63;5058926;28;20055;-36
2022/06/03 02:00:31;;;;;;;3.42;2.70;;;;;;;12.92;68.82;101915.97;5065067;28;20036;-36
2022/06/03 02:03:17;;;;;;;3.92;2.65;;;;;;;12.86;68.85;101914.97;5072655;28;20024;-36
2022/06/03 02:05:51;;;;;;;3.65;2.78;;;;;;;12.85;69.40;101915.22;5072025;28;20487;-36
2022/06/03 02:08:40;;;;;;;3.42;2.63;;;;;;;12.87;69.38;101911.22;5072195;28;20542;-36
2022/06/03 02:11:27;;;;;;;3.22;2.88;;;;;;;12.83;69.38;101912.72;5071871;28;20037;-36
2022/06/03 02:14:20;;;;;;;3.63;2.47;;;;;;;12.85;69.02;101915.22;5072250;28;20072;-36
2022/06/03 02:17:31;;;;;;;2.90;2.63;;;;;;;12.81;69.23;101906.66;5071893;28;20049;-35
2022/06/03 02:20:20;;;;;;;2.72;2.42;;;;;;;12.55;69.68;101874.31;4992710;28;20050;-36
2022/06/03 02:23:13;;;;;;;4.10;2.50;;;;;;;12.79;69.67;101903.34;4992894;28;20046;-36
2022/06/03 02:25:52;;;;;;;2.58;2.20;;;;;;;12.74;69.80;101910.50;4992514;28;20042;-36
2022/06/03 02:28:24;;;;;;;2.80;2.40;;;;;;;12.72;69.62;101888.97;4992221;28;20463;-36
2022/06/03 02:31:19;;;;;;;3.92;2.58;;;;;;;12.72;69.90;101901.72;4992956;28;20345;-36
2022/06/03 02:34:05;;;;;;;3.53;2.50;;;;;;;12.65;70.55;101907.22;4992697;28;20038;-36
2022/06/03 02:37:08;;;;;;;3.90;2.70;;;;;;;12.63;70.18;101901.16;4992557;28;20399;-36
2022/06/03 02:39:45;;;;;;;4.15;2.47;;;;;;;12.46;70.97;101892.72;4992038;28;20393;-36
2022/06/03 02:42:34;;;;;;;4.95;2.50;;;;;;;12.44;71.36;101883.13;4992223;28;20168;-36
2022/06/03 02:45:33;;;;;;;3.67;2.25;;;;;;;12.38;71.10;101885.66;4992191;28;20113;-35
2022/06/03 02:48:09;;;;;;;3.15;2.42;;;;;;;12.41;71.22;101895.25;4992380;28;20395;-35
2022/06/03 02:51:02;;;;;;;3.08;2.78;;;;;;;12.40;71.22;101888.16;4991456;28;20526;-35
2022/06/03 02:54:04;;;;;;;3.80;2.47;;;;;;;12.36;71.41;101886.94;4991796;28;20030;-36
2022/06/03 02:56:48;;;;;;;3.00;2.45;;;;;;;12.38;71.62;101882.09;5072567;28;20466;-35
2022/06/03 02:59:31;;;;;;;3.67;3.25;;;;;;;12.24;72.29;101872.38;5073474;28;20024;-35
2022/06/03 03:02:25;;;;;;;3.85;2.80;;;;;;;12.28;71.98;101884.47;5073716;28;20115;-35
2022/06/03 03:05:38;;;;;;;3.38;2.80;;;;;;;12.27;72.19;101882.81;5073131;28;20020;-36
2022/06/03 03:08:33;;;;;;;3.42;2.90;;;;;;;12.24;71.95;101888.66;5071250;28;20047;-36
2022/06/03 03:11:16;;;;;;;3.40;2.83;;;;;;;12.14;72.19;101889.13;5071005;28;20459;-36
2022/06/03 03:14:09;;;;;;;4.22;3.47;;;;;;;12.12;72.62;101888.50;5071148;28;20036;-35
2022/06/03 03:16:50;;;;;;;3.00;2.75;;;;;;;12.09;72.43;101889.75;5070678;28;20500;-35
2022/06/03 03:19:22;;;;;;;3.65;2.92;;;;;;;12.11;73.49;101890.41;5071047;28;20044;-36
2022/06/03 03:22:15;;;;;;;3.42;2.83;;;;;;;12.07;73.50;101891.88;5070571;28;20040;-36
2022/06/03 03:25:01;;;;;;;3.63;2.90;;;;;;;12.01;73.44;101873.75;5070439;28;20405;-35
2022/06/03 03:27:58;;;;;;;3.63;2.90;;;;;;;12.07;73.30;101877.47;5070729;28;20032;-35
2022/06/03 03:30:38;;;;;;;3.20;2.90;;;;;;;11.89;74.03;101863.78;5070999;28;20028;-35
2022/06/03 03:33:04;;;;;;;4.38;3.08;;;;;;;11.99;73.72;101877.72;5070934;28;20033;-35
2022/06/03 03:35:47;;;;;;;3.42;3.00;;;;;;;12.01;73.41;101884.59;5071057;28;20510;-36
2022/06/03 03:38:53;;;;;;;4.13;3.55;;;;;;;11.94;73.51;101870.22;5070401;28;20028;-36
2022/06/03 03:41:56;;;;;;;4.43;3.35;;;;;;;11.92;73.95;101874.22;5070588;28;20032;-35
2022/06/03 03:44:31;;;;;;;4.22;3.42;;;;;;;11.88;74.09;101868.38;5070889;28;20040;-35
2022/06/03 03:47:47;;;;;;;3.92;3.53;;;;;;;11.82;74.29;101869.25;5072782;28;20067;-35
2022/06/03 03:50:21;;;;;;;4.22;3.35;;;;;;;11.80;74.77;101872.13;5072658;28;20040;-36
2022/06/03 03:53:20;;;;;;;4.95;3.83;;;;;;;11.84;74.56;101867.16;5072937;28;20028;-36
2022/06/03 03:56:26;;;;;;;3.78;3.35;;;;;;;11.78;74.96;101867.97;5072588;28;20036;-36
2022/06/03 03:59:14;;;;;;;6.35;3.70;;;;;;;11.67;75.71;101855.94;5072931;28;20032;-36
2022/06/03 04:01:51;;;;;;;4.97;3.50;;;;;;;11.76;75.40;101865.50;5072766;28;20029;-36
2022/06/03 04:04:36;;;;;;;3.85;3.42;;;;;;;11.76;74.95;101868.19;5077152;28;20082;-36
2022/06/03 04:07:04;;;;;;;4.05;3.65;;;;;;;11.64;76.07;101864.47;5076678;28;20032;-35
2022/06/03 04:09:57;;;;;;;4.05;3.50;;;;;;;11.65;75.68;101857.19;5076333;28;20026;-35
2022/06/03 04:12:46;;;;;;;4.43;4.03;;;;;;;11.57;76.39;101856.38;5077271;28;20074;-36
2022/06/03 04:15:49;;;;;;;4.38;3.97;;;;;;;11.60;75.95;101855.09;5076152;28;20055;-36
2022/06/03 04:18:39;;;;;;;5.70;3.92;;;;;;;11.52;76.60;101841.81;5077091;28;20025;-35
2022/06/03 04:21:14;;;;;;;4.85;4.00;;;;;;;11.63;76.41;101849.28;5076784;28;20028;-36
2022/06/03 04:24:04;;;;;;;4.13;3.72;;;;;;;11.65;76.08;101851.75;5076486;28;20033;-35
2022/06/03 04:26:32;;;;;;;5.40;3.90;;;;;;;11.66;76.26;101853.41;5076155;28;20046;-35
2022/06/03 04:29:36;;;;;;;8.18;4.40;;;;;;;11.68;76.39;101848.63;5076109;28;20103;-35
2022/06/03 04:32:04;;;;;;;4.78;3.88;;;;;;;11.69;76.53;101856.53;5076136;28;20119;-35
2022/06/03 04:35:06;;;;;;;4.22;3.83;;;;;;;11.83;76.16;101855.47;5076041;28;20029;-35
2022/06/03 04:37:49;;;;;;;6.38;4.20;;;;;;;11.82;75.84;101829.44;5076546;28;20032;-36
2022/06/03 04:40:45;;;;;;;6.95;3.92;;;;;;;11.99;75.71;101837.06;5076409;28;20039;-35
2022/06/03 04:43:29;;;;;;;6.95;3.92;;;;;;;12.05;75.19;101842.47;5075602;28;20059;-36
2022/06/03 04:46:35;;;;;;;4.65;4.25;;;;;;;12.14;75.39;101853.03;5075615;28;20107;-35
2022/06/03 04:49:15;;;;;;;4.63;4.10;;;;;;;12.25;75.19;101852.34;5053622;28;20033;-36
2022/06/03 04:52:30;;;;;;;5.00;3.90;;;;;;;12.38;74.94;101857.69;5053311;28;20040;-35
2022/06/03 04:55:33;;;;;;;7.50;4.40;;;;;;;12.46;74.70;101852.03;5053368;28;20048;-35
2022/06/03 04:58:16;;;;;;;6.35;4.25;;;;;;;12.44;73.83;101854.09;5053480;28;20078;-35
2022/06/03 05:01:15;;;;;;;5.28;4.10;;;;;;;12.58;74.09;101868.41;5053312;28;20138;-36
2022/06/03 05:04:05;;;;;;;4.93;4.43;;;;;;;12.67;74.05;101869.81;5053432;28;20037;-35
2022/06/03 05:07:06;;;;;;;4.60;3.97;;;;;;;12.74;73.96;101865.19;5053227;28;20560;-36
2022/06/03 05:09:53;;;;;;;5.38;4.10;;;;;;;12.80;73.48;101858.03;5053647;28;20048;-36
2022/06/03 05:12:55;;;;;;;4.47;4.07;;;;;;;12.94;73.44;101859.59;5053465;28;20033;-36
2022/06/03 05:15:58;;;;;;;3.67;3.38;;;;;;;12.99;72.98;101859.75;5052125;28;20465;-35
2022/06/03 05:19:02;;;;;;;3.95;3.65;;;;;;;13.05;73.11;101869.72;4993618;28;20034;-36
2022/06/03 05:21:59;;;;;;;5.32;3.60;;;;;;;13.18;72.70;101857.09;5032804;28;20033;-35
2022/06/03 05:24:57;;;;;;;4.55;3.83;;;;;;;13.29;72.69;101861.81;5032965;28;20134;-36
2022/06/03 05:27:34;;;;;;;6.20;3.80;;;;;;;13.37;71.37;101856.06;5033235;28;20095;-35
2022/06/03 05:30:30;;;;;;;5.65;4.05;;;;;;;13.47;71.11;101853.69;5032569;28;20534;-36
2022/06/03 05:33:20;;;;;;;4.25;3.85;;;;;;;13.37;70.62;101848.78;5033162;28;20473;-35
2022/06/03 05:36:06;;;;;;;5.22;3.88;;;;;;;13.53;71.38;101844.63;5033006;28;20164;-36
2022/06/03 05:39:06;;;;;;;5.53;4.22;;;;;;;13.56;71.40;101836.00;5033137;28;20041;-35
2022/06/03 05:44:43;;;;;;;4.70;3.53;;;;;;;13.94;70.41;101834.09;5032852;28;20120;-36
2022/06/03 05:47:12;;;;;;;4.10;3.80;;;;;;;14.09;70.78;101840.78;5032237;28;20106;-36
2022/06/03 05:49:46;;;;;;;5.90;3.92;;;;;;;14.01;69.61;101832.13;5032646;28;20533;-36
2022/06/03 05:52:29;;;;;;;4.32;3.80;;;;;;;14.08;69.55;101839.13;5013352;28;20042;-36
2022/06/03 05:55:03;;;;;;;6.45;4.05;;;;;;;14.11;70.54;101833.22;5016699;28;20106;-35
2022/06/03 05:57:42;;;;;;;6.43;3.80;;;;;;;14.18;69.63;101842.13;5074278;28;20031;-35
2022/06/03 06:00:16;;;;;;;4.05;3.40;;;;;;;14.36;69.66;101837.69;5074955;28;20030;-36
2022/06/03 06:02:53;;;;;;;4.18;3.60;;;;;;;14.35;68.99;101836.03;5074694;28;20112;-36
2022/06/03 06:05:34;;;;;;;4.32;3.90;;;;;;;14.31;68.93;101834.84;5074883;28;20058;-36
2022/06/03 06:08:33;;;;;;;4.20;3.80;;;;;;;14.35;68.53;101838.75;5074774;28;20028;-36
2022/06/03 06:11:11;;;;;;;4.38;3.60;;;;;;;14.51;69.52;101843.56;5074421;28;20461;-36
2022/06/03 06:13:48;;;;;;;3.97;3.63;;;;;;;14.54;68.14;101834.94;5074438;28;20097;-36
2022/06/03 06:16:29;;;;;;;6.85;3.85;;;;;;;14.59;68.41;101832.34;5074650;28;20338;-36
2022/06/03 06:19:07;;;;;;;4.43;3.88;;;;;;;14.74;68.54;101837.34;5074119;28;20077;-35
2022/06/03 06:21:51;;;;;;;4.65;3.83;;;;;;;14.86;67.85;101837.34;5074012;28;20082;-36
2022/06/03 06:24:44;;;;;;;6.15;4.20;;;;;;;14.94;67.86;101846.00;5073673;28;20039;-36
2022/06/03 06:27:46;;;;;;;6.30;4.07;;;;;;;14.90;66.63;101850.25;5073203;28;20074;-36
2022/06/03 06:30:27;;;;;;;5.13;3.60;;;;;;;14.87;66.92;101834.38;5074265;28;20028;-36
2022/06/03 06:33:20;;;;;;;5.65;3.85;;;;;;;15.14;67.41;101847.56;5074110;28;20085;-36
2022/06/03 06:36:10;;;;;;;4.55;3.88;;;;;;;15.16;66.03;101846.22;5074117;28;20465;-36
2022/06/03 06:38:49;;;;;;;4.57;4.13;;;;;;;15.16;66.80;101843.50;5074341;28;20378;-36
2022/06/03 06:41:38;;;;;;;3.95;3.30;;;;;;;15.25;67.01;101838.53;5073358;28;20032;-36
2022/06/03 06:44:15;;;;;;;4.70;3.92;;;;;;;15.39;66.15;101841.84;5073638;28;20389;-36
2022/06/03 06:46:59;;;;;;;;;;;;;;;15.53;66.48;101837.78;5074567;28;20052;-36
2022/06/03 06:49:30;;;;;;;5.38;4.05;;;;;;;15.46;65.06;101839.81;5073447;28;19919;-36
2022/06/03 06:52:20;;;;;;;4.85;3.70;;;;;;;15.55;66.56;101838.38;5074269;28;20038;-36
2022/06/03 06:54:46;;;;;;;4.95;3.65;;;;;;;15.71;66.02;101839.53;5073597;28;20100;-36
2022/06/03 06:57:43;;;;;;;;;;;;;;;15.73;65.71;101851.06;5074094;28;20107;-36
2022/06/03 07:00:24;;;;;;;7.18;3.65;;;;;;;15.84;64.55;101843.91;5091755;28;19941;-36
2022/06/03 07:02:58;;;;;;;4.35;3.40;;;;;;;15.88;63.20;101842.38;5091750;28;20040;-36
2022/06/03 07:05:31;;;;;;;3.83;3.42;;;;;;;15.96;63.33;101836.53;5091346;28;20073;-36
2022/06/03 07:08:20;;;;;;;4.07;3.67;;;;;;;16.06;63.59;101842.19;5091623;28;20047;-36
2022/06/03 07:10:55;;;;;;;5.30;3.85;;;;;;;16.08;62.33;101836.47;5091628;28;20036;-35
2022/06/03 07:13:34;;;;;;;4.15;3.35;;;;;;;16.08;62.93;101837.31;5091588;28;20454;-36
2022/06/03 07:19:50;;;;;;;4.53;3.53;;;;;;;16.16;62.28;101836.91;5091524;28;20499;-36
2022/06/03 07:22:30;;;;;;;4.13;3.70;;;;;;;16.19;61.40;101841.88;5091061;28;20035;-36
2022/06/03 07:25:04;;;;;;;5.38;3.58;;;;;;;16.31;61.64;101838.28;5090869;28;20532;-36
2022/06/03 07:27:39;;;;;;;4.47;3.85;;;;;;;16.36;62.50;101832.91;5090940;28;20039;-36
2022/06/03 07:30:21;;;;;;;4.68;3.17;;;;;;;16.48;61.73;101829.03;5090926;28;20035;-36
2022/06/03 07:33:16;;;;;;;4.03;3.53;;;;;;;16.55;61.94;101831.63;5091223;28;20067;-36
2022/06/03 07:35:50;;;;;;;4.80;3.80;;;;;;;16.54;60.65;101826.38;5081937;28;20400;-36
2022/06/03 07:38:28;;;;;;;4.20;3.75;;;;;;;16.66;62.73;101824.41;5072723;28;20063;-36
2022/06/03 07:41:06;;;;;;;5.35;3.88;;;;;;;16.71;61.90;101819.03;5072939;28;20044;-36
2022/06/03 07:43:53;;;;;;;5.55;3.97;;;;;;;16.79;60.31;101829.59;5073209;28;20119;-36
2022/06/03 07:46:25;;;;;;;6.70;4.25;;;;;;;16.79;61.95;101826.00;5073145;28;20061;-36
2022/06/03 07:48:52;;;;;;;4.53;3.30;;;;;;;16.89;62.51;101821.56;5072871;28;20496;-36
2022/06/03 07:51:17;;;;;;;;;;;;;;;17.05;61.92;101827.25;5073296;28;20101;-36
2022/06/03 07:53:50;;;;;;;4.00;3.60;;;;;;;17.06;59.53;101826.16;5072537;28;19939;-36
2022/06/03 07:56:24;;;;;;;4.53;3.65;;;;;;;17.13;59.74;101800.31;5072935;28;20040;-36
2022/06/03 07:58:54;;;;;;;9.77;3.95;;;;;;;17.31;60.02;101809.31;5073456;28;20116;-36
2022/06/03 08:01:37;;;;;;;4.50;3.85;;;;;;;17.39;61.09;101817.91;5073381;28;20029;-36
2022/06/03 08:04:05;;;;;;;6.80;4.30;;;;;;;17.38;59.77;101810.78;5072654;28;20130;-36
2022/06/03 08:12:06;;;;;;;4.22;3.63;;;;;;;17.65;59.03;101810.84;5072661;28;20546;-36
2022/06/03 08:14:31;;;;;;;;;;;;;;;17.77;58.59;101804.47;5073761;28;20020;-36
2022/06/03 08:16:57;;;;;;;4.30;3.90;;;;;;;17.85;60.16;101799.34;5072888;28;19912;-36
2022/06/03 08:19:27;;;;;;;;;;;;;;;18.00;59.96;101790.47;5073025;28;20320;-36
2022/06/03 08:21:57;;;;;;;4.93;3.78;;;;;;;18.04;59.25;101788.88;5072494;28;20372;-36
2022/06/03 08:24:25;;;;;;;3.75;3.25;;;;;;;18.31;59.05;101782.59;5072533;28;20526;-36
2022/06/03 08:26:59;;;;;;;3.95;3.65;;;;;;;18.41;58.76;101775.28;5072782;28;20096;-36
2022/06/03 08:29:41;;;;;;;5.35;3.60;;;;;;;18.48;56.87;101764.91;5073039;28;20052;-36
2022/06/03 08:32:11;;;;;;;4.50;3.92;;;;;;;18.65;56.97;101767.53;5072693;28;20111;-36
2022/06/03 08:34:45;;;;;;;4.55;3.65;;;;;;;18.65;57.10;101753.84;5072375;28;20063;-36
2022/06/03 08:37:21;;;;;;;4.32;3.25;;;;;;;18.86;55.88;101784.97;5072395;28;20021;-36
2022/06/03 08:39:48;;;;;;;3.90;3.55;;;;;;;18.90;55.21;101775.13;5072658;28;20025;-36
2022/06/03 08:42:27;;;;;;;3.97;3.58;;;;;;;18.89;56.18;101770.75;5070797;28;20366;-36
2022/06/03 08:45:25;;;;;;;4.47;3.53;;;;;;;18.95;57.53;101775.16;5072576;28;20025;-36
2022/06/03 08:47:57;;;;;;;3.88;3.35;;;;;;;19.08;56.32;101779.34;5072654;28;20048;-36
2022/06/03 08:50:25;;;;;;;4.75;3.40;;;;;;;19.00;55.89;101775.19;5075636;28;20045;-36
2022/06/03 08:53:05;;;;;;;3.63;3.33;;;;;;;19.19;57.23;101780.25;5075428;28;20339;-36
2022/06/03 08:55:35;;;;;;;4.93;3.50;;;;;;;19.35;56.97;101778.38;5076124;28;20381;-36
2022/06/03 08:58:22;;;;;;;4.55;3.30;;;;;;;19.56;56.40;101782.84;5075871;28;20505;-36
2022/06/03 09:01:01;;;;;;;;;;;;;;;19.59;52.63;101784.25;5076132;28;20477;-36
2022/06/03 09:03:30;;;;;;;3.70;2.90;;;;;;;19.40;52.94;101783.91;5075837;28;19997;-36
2022/06/03 09:06:11;;;;;;;3.50;3.20;;;;;;;19.48;53.53;101780.66;5075348;28;20051;-36
2022/06/03 09:08:58;;;;;;;5.78;3.45;;;;;;;19.43;52.92;101769.66;5076446;28;20028;-36
2022/06/03 09:11:32;;;;;;;3.58;2.85;;;;;;;19.49;51.88;101754.88;5075382;28;20052;-36
2022/06/03 09:14:08;;;;;;;2.75;2.50;;;;;;;19.72;51.71;101778.31;5076042;28;20119;-36
2022/06/03 09:16:35;;;;;;;3.35;2.28;;;;;;;19.84;51.75;101783.53;5076326;28;20086;-35
2022/06/03 09:19:30;;;;;;;2.90;2.38;;;;;;;20.01;50.48;101782.22;5075480;28;20024;-36
2022/06/03 09:22:01;;;;;;;3.00;2.70;;;;;;;20.20;50.51;101778.94;5074638;28;20392;-36
2022/06/03 09:24:32;;;;;;;5.85;3.05;;;;;;;20.28;51.10;101776.47;5075384;28;20107;-36
2022/06/03 09:27:01;;;;;;;3.17;2.47;;;;;;;20.45;49.71;101756.19;5075196;28;20460;-36
2022/06/03 09:29:27;;;;;;;2.78;2.35;;;;;;;20.47;49.91;101751.25;5075530;28;20024;-35
2022/06/03 09:31:59;;;;;;;5.00;2.50;;;;;;;20.65;48.88;101769.94;5075782;28;20048;-35
2022/06/03 09:34:43;;;;;;;2.70;2.03;;;;;;;20.93;49.41;101764.91;5075518;28;20032;-36
2022/06/03 09:37:14;;;;;;;4.28;1.77;;;;;;;21.15;47.57;101767.34;5075755;28;20078;-36
2022/06/03 09:39:40;;;;;;;2.70;2.00;;;;;;;21.20;47.14;101754.41;5075926;28;20118;-36
2022/06/03 09:42:07;;;;;;;1.98;1.70;;;;;;;21.42;46.89;101756.81;5075284;28;20105;-36
2022/06/03 09:44:32;;;;;;;4.15;2.00;;;;;;;21.52;45.21;101762.31;5074992;28;20104;-36
2022/06/03 09:47:03;;;;;;;3.65;1.48;;;;;;;21.69;45.77;101745.41;5075148;28;20141;-36
2022/06/03 09:49:30;;;;;;;3.92;1.70;;;;;;;21.67;45.87;101744.88;5075683;28;20082;-36
2022/06/03 09:51:56;;;;;;;2.47;1.70;;;;;;;21.51;43.31;101744.13;5075365;28;20350;-36
2022/06/03 09:54:24;;;;;;;2.13;1.25;;;;;;;21.75;43.73;101749.78;5074779;28;20028;-36
2022/06/03 09:56:53;;;;;;;3.55;1.52;;;;;;;21.81;44.08;101742.31;5074745;28;20374;-36
2022/06/03 09:59:21;;;;;;;1.80;1.30;;;;;;;21.79;42.16;101745.34;5074326;28;20106;-36
2022/06/03 10:01:48;;;;;;;2.15;1.38;;;;;;;21.72;41.96;101747.59;5074433;28;20389;-36
2022/06/03 10:04:15;;;;;;;2.40;1.05;;;;;;;21.85;40.62;101746.94;5074619;28;20036;-36
2022/06/03 10:06:43;;;;;;;3.58;1.33;;;;;;;21.75;41.60;101744.25;5075042;28;20029;-36
2022/06/03 10:17:52;;;;;;;1.52;0.75;;;;;;;22.19;41.09;101724.16;5071949;28;20051;-36
2022/06/03 10:20:18;;;;;;;1.63;1.00;;;;;;;22.15;38.75;101734.09;5071851;28;20047;-36
2022/06/03 10:22:48;;;;;;;3.22;1.20;;;;;;;21.97;41.65;101723.78;5071856;28;20037;-36
2022/06/03 10:25:15;;;;;;;2.25;1.30;;;;;;;22.05;40.32;101718.44;5071802;28;20528;-36
2022/06/03 10:27:40;;;;;;;2.63;1.00;;;;;;;22.32;41.11;101714.44;5071745;28;20047;-36
2022/06/03 10:30:08;;;;;;;2.00;1.27;;;;;;;22.40;41.86;101705.53;5071642;28;20559;-36
2022/06/03 10:32:35;;;;;;;1.17;0.88;;;;;;;22.60;40.30;101699.00;5071684;28;20085;-36
2022/06/03 10:35:15;;;;;;;1.73;1.20;;;;;;;22.48;38.60;101702.13;5071612;28;20043;-36
2022/06/03 10:37:52;;;;;;;2.97;0.90;;;;;;;22.53;38.01;101699.34;5071906;28;20127;-36
2022/06/03 10:40:21;;;;;;;2.25;0.77;;;;;;;22.74;40.50;101711.00;5071421;28;20071;-36
2022/06/03 10:42:48;;;;;;;3.80;0.98;;;;;;;22.70;38.54;101715.44;5071647;28;20166;-36
2022/06/03 10:45:15;;;;;;;2.55;1.40;;;;;;;22.75;38.66;101704.38;5071435;28;20470;-36
2022/06/03 10:47:47;;;;;;;3.55;1.20;;;;;;;22.61;37.70;101700.66;5071315;28;20051;-36
2022/06/03 10:50:24;;;;;;;1.55;1.08;;;;;;;22.62;36.61;101705.03;5072032;28;20040;-36
2022/06/03 11:01:28;;;;;;;2.20;1.30;;;;;;;22.72;37.80;101702.19;5074013;28;20078;-36
2022/06/03 11:03:53;;;;;;;2.33;1.17;;;;;;;22.59;37.91;101692.69;5073663;28;20075;-36
2022/06/03 11:06:33;;;;;;;1.70;1.20;;;;;;;22.91;38.34;101698.72;5073363;28;20115;-36
2022/06/03 11:09:07;;;;;;;3.67;1.20;;;;;;;23.10;38.51;101691.31;5073874;28;20457;-36
2022/06/03 11:11:52;;;;;;;2.38;1.00;;;;;;;23.02;37.47;101689.19;5072505;28;20474;-36
2022/06/03 11:14:21;;;;;;;3.03;1.30;;;;;;;23.05;38.93;101689.44;5069419;28;20469;-36
2022/06/03 11:17:07;;;;;;;1.52;1.30;;;;;;;23.03;39.45;101680.59;5073305;28;20028;-36
2022/06/03 11:19:38;;;;;;;2.60;1.30;;;;;;;23.06;39.92;101677.28;5073473;28;20059;-36
2022/06/03 11:22:13;;;;;;;2.28;1.10;;;;;;;23.34;39.80;101678.28;5073903;28;20047;-36
2022/06/03 11:24:38;;;;;;;1.83;0.88;;;;;;;23.51;39.16;101674.19;5073595;28;20024;-36
2022/06/03 11:27:07;;;;;;;1.67;0.85;;;;;;;23.49;38.00;101670.91;5073308;28;20033;-36
2022/06/03 11:29:37;;;;;;;2.65;0.75;;;;;;;23.28;35.02;101671.22;5072807;28;20465;-36
2022/06/03 11:32:05;;;;;;;1.67;0.50;;;;;;;23.27;33.86;101675.06;5073058;28;20468;-36
2022/06/03 11:34:43;;;;;;;1.35;0.60;;;;;;;23.48;33.05;101672.88;5073738;28;20294;-36
2022/06/03 11:37:17;;;;;;;1.67;0.60;;;;;;;23.72;35.14;101670.06;5073329;28;20060;-36
2022/06/03 11:40:06;;;;;;;1.02;0.60;;;;;;;23.77;34.14;101678.25;5072758;28;20108;-36
2022/06/03 11:43:04;;;;;;;2.95;0.80;;;;;;;23.72;33.89;101675.56;5072874;28;20032;-36
2022/06/03 11:45:44;;;;;;;2.72;0.60;;;;;;;23.76;33.09;101670.25;5072582;28;20043;-36
2022/06/03 11:48:23;;;;;;;2.03;0.90;;;;;;;23.46;33.08;101668.75;5073155;28;20090;-35
2022/06/03 11:50:48;;;;;;;1.15;0.77;;;;;;;23.76;34.90;101671.06;5073335;28;20346;-36
2022/06/03 11:53:24;;;;;;;3.28;0.85;;;;;;;24.00;33.80;101670.16;5072802;28;20093;-36
2022/06/03 11:55:52;;;;;;;1.30;0.52;;;;;;;24.08;32.53;101661.19;5072806;28;20032;-35
2022/06/03 11:58:22;;;;;;;1.25;0.60;;;;;;;24.20;35.26;101647.69;5073532;28;20028;-36
2022/06/03 12:00:57;;;;;;;1.33;0.60;;;;;;;24.43;34.43;101668.03;5072453;28;20047;-36
2022/06/03 12:03:38;;;;;;;1.80;0.90;;;;;;;24.45;34.08;101676.03;5072635;28;20491;-36
2022/06/03 12:06:15;;;;;;;1.20;0.80;;;;;;;24.30;33.92;101675.19;5072868;28;20496;-35
2022/06/03 12:08:53;;;;;;;1.80;0.90;;;;;;;24.19;34.98;101673.69;5072645;28;20118;-35
2022/06/03 12:14:38;;;;;;;0.80;0.60;;;;;;;24.27;36.36;101656.44;5073084;28;20071;-36
2022/06/03 12:17:09;;;;;;;1.98;0.80;;;;;;;24.60;34.08;101675.78;5072394;28;20036;-36
2022/06/03 12:19:39;;;;;;;1.30;0.77;;;;;;;24.69;33.56;101673.91;5072694;28;20201;-36
2022/06/03 12:22:34;;;;;;;2.75;1.10;;;;;;;24.76;34.21;101662.47;5072226;28;20028;-36
2022/06/03 12:25:06;;;;;;;2.60;0.73;;;;;;;24.72;33.34;101658.66;5076800;28;20059;-35
2022/06/03 12:27:36;;;;;;;2.85;0.80;;;;;;;24.72;31.83;101662.25;5076960;28;20373;-36
2022/06/03 12:30:20;;;;;;;1.83;0.70;;;;;;;25.10;32.92;101659.28;5076648;28;20024;-36
2022/06/03 12:32:55;;;;;;;1.42;0.70;;;;;;;24.84;32.35;101640.44;5076552;28;20037;-36
2022/06/03 12:35:43;;;;;;;1.77;0.80;;;;;;;24.85;32.47;101646.78;5077038;28;20025;-36
2022/06/03 12:38:20;;;;;;;1.13;0.60;;;;;;;24.78;30.78;101647.19;5076492;28;20118;-36
2022/06/03 12:40:51;;;;;;;1.10;0.82;;;;;;;24.84;34.02;101629.38;5076640;28;20067;-36
2022/06/03 12:43:28;;;;;;;1.23;0.70;;;;;;;24.81;32.34;101641.03;5076665;28;20133;-36
2022/06/03 12:46:09;;;;;;;1.00;0.57;;;;;;;24.54;33.13;101643.78;5075988;28;20059;-36
2022/06/03 12:48:43;;;;;;;1.52;0.60;;;;;;;24.78;32.16;101640.84;5076155;28;20029;-35
2022/06/03 12:51:30;;;;;;;1.30;0.90;;;;;;;24.81;32.19;101641.03;5076039;28;20105;-36
2022/06/03 12:54:19;;;;;;;3.08;0.95;;;;;;;24.98;33.12;101640.41;5076463;28;20041;-36
2022/06/03 12:56:54;;;;;;;1.30;0.55;;;;;;;25.32;32.54;101633.59;5053896;28;20037;-36
2022/06/03 12:59:31;;;;;;;2.45;0.70;;;;;;;25.62;32.89;101640.38;5054221;28;20037;-36
2022/06/03 13:02:01;;;;;;;1.75;0.70;;;;;;;25.64;32.69;101638.94;5053857;28;20082;-36
2022/06/03 13:05:05;;;;;;;2.40;0.65;;;;;;;25.60;31.71;101642.66;5053333;28;20044;-36